createdAt,value
2022-11-15T00:00:53.192Z,54.05
2022-11-15T00:03:22.848Z,49.97
2022-11-15T00:05:49.462Z,51.70
2022-11-15T00:08:16.088Z,54.37
2022-11-15T00:10:43.035Z,51.57
2022-11-15T00:13:11.835Z,56.33
2022-11-15T00:15:42.768Z,60.63
2022-11-15T00:18:14.559Z,52.78
2022-11-15T00:20:41.085Z,56.22
2022-11-15T00:23:07.818Z,55.40
2022-11-15T00:25:34.429Z,56.05
2022-11-15T00:28:01.464Z,55.47
2022-11-15T00:30:28.750Z,58.75
2022-11-15T00:32:55.514Z,59.17
2022-11-15T00:35:22.804Z,61.65
2022-11-15T00:37:49.301Z,55.00
2022-11-15T00:40:16.311Z,61.72
2022-11-15T00:42:42.870Z,59.60
2022-11-15T00:45:10.034Z,60.28
2022-11-15T00:47:36.474Z,60.70
2022-11-15T00:50:03.158Z,65.00
2022-11-15T00:52:29.533Z,67.27
2022-11-15T00:54:55.932Z,63.67
2022-11-15T00:57:22.373Z,64.50
2022-11-15T00:59:48.798Z,63.47
2022-11-15T01:02:15.195Z,61.90
2022-11-15T01:04:41.565Z,62.80
2022-11-15T01:07:07.999Z,63.05
2022-11-15T01:09:34.512Z,60.63
2022-11-15T01:12:01.009Z,61.50
2022-11-15T01:14:27.820Z,59.55
2022-11-15T01:16:54.213Z,62.38
2022-11-15T01:19:20.783Z,61.15
2022-11-15T01:21:50.869Z,61.03
2022-11-15T01:24:17.453Z,61.03
2022-11-15T01:26:43.852Z,66.78
2022-11-15T01:29:10.276Z,62.17
2022-11-15T01:31:36.679Z,61.42
2022-11-15T01:34:03.265Z,66.13
2022-11-15T01:36:29.649Z,65.93
2022-11-15T01:39:00.048Z,60.50
2022-11-15T01:41:29.600Z,60.78
2022-11-15T01:43:58.949Z,69.60
2022-11-15T01:46:31.966Z,58.67
2022-11-15T01:49:03.284Z,58.65
2022-11-15T01:51:33.192Z,63.08
2022-11-15T01:54:09.478Z,63.75
2022-11-15T01:56:43.908Z,65.00
2022-11-15T01:59:11.649Z,61.83
2022-11-15T02:01:38.735Z,63.33
2022-11-15T02:04:12.240Z,63.92
2022-11-15T02:06:39.993Z,60.83
2022-11-15T02:09:06.950Z,57.42
2022-11-15T02:11:33.740Z,65.03
2022-11-15T02:14:01.943Z,63.97
2022-11-15T02:16:38.922Z,70.03
2022-11-15T02:19:14.432Z,66.18
2022-11-15T02:22:06.383Z,64.10
2022-11-15T02:25:03.988Z,65.47
2022-11-15T02:28:02.384Z,63.15
2022-11-15T02:30:49.070Z,62.50
2022-11-15T02:33:30.401Z,65.43
2022-11-15T02:35:59.891Z,67.57
2022-11-15T02:38:44.347Z,69.10
2022-11-15T02:41:15.932Z,63.00
2022-11-15T02:43:58.573Z,66.00
2022-11-15T02:46:58.456Z,64.57
2022-11-15T02:49:29.026Z,62.40
2022-11-15T02:51:56.816Z,59.13
2022-11-15T02:54:26.389Z,62.65
2022-11-15T02:56:59.217Z,63.83
2022-11-15T02:59:48.393Z,59.53
2022-11-15T03:02:20.675Z,58.00
2022-11-15T03:05:03.814Z,68.93
2022-11-15T03:07:40.406Z,73.32
2022-11-15T03:10:13.724Z,68.53
2022-11-15T03:12:46.297Z,59.75
2022-11-15T03:15:23.773Z,62.28
2022-11-15T03:17:55.726Z,60.97
2022-11-15T03:20:22.190Z,59.67
2022-11-15T03:22:50.323Z,63.20
2022-11-15T03:25:23.664Z,66.28
2022-11-15T03:27:53.543Z,61.22
2022-11-15T03:30:20.174Z,60.25
2022-11-15T03:32:51.157Z,63.10
2022-11-15T03:35:23.536Z,60.03
2022-11-15T03:38:06.919Z,59.00
2022-11-15T03:41:06.294Z,59.33
2022-11-15T03:43:50.967Z,56.65
2022-11-15T03:46:24.043Z,60.63
2022-11-15T03:48:57.005Z,55.97
2022-11-15T03:51:23.678Z,57.35
2022-11-15T03:53:50.169Z,53.53
2022-11-15T03:56:16.691Z,53.33
2022-11-15T03:58:43.085Z,55.70
2022-11-15T04:01:09.593Z,50.67
2022-11-15T04:03:36.045Z,52.45
2022-11-15T04:06:02.540Z,55.20
2022-11-15T04:08:28.950Z,51.88
2022-11-15T04:10:55.612Z,56.55
2022-11-15T04:13:22.012Z,55.90
2022-11-15T04:15:48.417Z,53.75
2022-11-15T04:18:14.875Z,56.28
2022-11-15T04:20:59.930Z,50.35
2022-11-15T04:23:44.759Z,56.75
2022-11-15T04:26:13.928Z,58.08
2022-11-15T04:28:59.076Z,58.63
2022-11-15T04:31:27.304Z,57.70
2022-11-15T04:33:54.122Z,56.83
2022-11-15T04:36:40.013Z,54.80
2022-11-15T04:39:06.906Z,54.03
2022-11-15T04:41:33.379Z,55.95
2022-11-15T04:44:00.123Z,52.03
2022-11-15T04:46:27.048Z,51.47
2022-11-15T04:48:58.507Z,56.53
2022-11-15T04:51:26.169Z,58.67
2022-11-15T04:53:52.686Z,56.97
2022-11-15T04:56:19.105Z,60.15
2022-11-15T04:58:45.545Z,50.40
2022-11-15T05:01:15.733Z,48.60
2022-11-15T05:04:02.198Z,54.22
2022-11-15T05:06:28.867Z,51.80
2022-11-15T05:08:55.595Z,48.70
2022-11-15T05:11:22.707Z,51.28
2022-11-15T05:13:49.683Z,52.17
2022-11-15T05:16:16.176Z,56.90
2022-11-15T05:18:42.936Z,54.25
2022-11-15T05:21:12.318Z,47.15
2022-11-15T05:23:39.398Z,50.45
2022-11-15T05:26:09.379Z,48.05
2022-11-15T05:28:37.470Z,44.55
2022-11-15T05:31:05.892Z,50.83
2022-11-15T05:33:34.453Z,50.88
2022-11-15T05:36:32.137Z,47.42
2022-11-15T05:38:58.602Z,47.55
2022-11-15T05:41:45.143Z,49.70
2022-11-15T05:44:13.937Z,47.67
2022-11-15T05:46:41.656Z,53.28
2022-11-15T05:49:14.075Z,52.53
2022-11-15T05:51:41.866Z,57.08
2022-11-15T05:54:08.722Z,56.58
2022-11-15T05:56:35.115Z,55.38
2022-11-15T05:59:01.905Z,52.67
2022-11-15T06:01:28.801Z,52.22
2022-11-15T06:03:55.526Z,53.92
2022-11-15T06:06:21.967Z,49.03
2022-11-15T06:08:48.870Z,51.13
2022-11-15T06:11:15.332Z,50.30
2022-11-15T06:13:41.780Z,51.03
2022-11-15T06:16:08.190Z,51.17
2022-11-15T06:18:35.527Z,52.75
2022-11-15T06:21:02.019Z,58.92
2022-11-15T06:23:32.341Z,52.38
2022-11-15T06:26:00.109Z,53.13
2022-11-15T06:30:55.973Z,53.42
2022-11-15T06:33:22.359Z,53.75
2022-11-15T06:35:48.782Z,49.35
2022-11-15T06:38:15.148Z,52.03
2022-11-15T06:40:41.587Z,54.00
2022-11-15T06:43:08.476Z,50.30
2022-11-15T06:45:34.962Z,53.35
2022-11-15T06:48:01.912Z,47.83
2022-11-15T06:50:28.334Z,55.65
2022-11-15T06:52:55.551Z,51.58
2022-11-15T06:55:22.005Z,53.13
2022-11-15T06:57:50.487Z,52.08
2022-11-15T07:00:19.170Z,48.17
2022-11-15T07:02:46.104Z,51.28
2022-11-15T07:05:13.733Z,52.05
2022-11-15T07:10:07.838Z,51.78
2022-11-15T07:12:34.605Z,63.92
2022-11-15T07:15:00.991Z,65.45
2022-11-15T07:17:27.347Z,51.85
2022-11-15T07:19:53.805Z,45.85
2022-11-15T07:22:20.170Z,43.78
2022-11-15T07:24:46.539Z,43.60
2022-11-15T07:27:13.099Z,42.40
2022-11-15T07:29:39.577Z,44.72
2022-11-15T07:32:05.957Z,45.72
2022-11-15T07:34:32.360Z,46.05
2022-11-15T07:36:58.743Z,45.15
2022-11-15T07:39:25.203Z,40.80
2022-11-15T07:42:11.530Z,39.17
2022-11-15T07:44:37.899Z,39.97
2022-11-15T07:47:04.320Z,33.35
2022-11-15T07:49:30.755Z,35.92
2022-11-15T07:51:57.179Z,38.20
2022-11-15T07:54:23.550Z,33.17
2022-11-15T07:56:49.927Z,37.28
2022-11-15T07:59:16.315Z,34.85
2022-11-15T08:01:42.828Z,33.97
2022-11-15T08:04:12.022Z,35.70
2022-11-15T08:06:38.713Z,31.58
2022-11-15T08:09:05.099Z,38.17
2022-11-15T08:11:31.485Z,39.35
2022-11-15T08:13:57.910Z,33.40
2022-11-15T08:16:24.286Z,29.73
2022-11-15T08:18:50.894Z,43.65
2022-11-15T08:21:20.522Z,36.87
2022-11-15T08:23:47.113Z,31.85
2022-11-15T08:26:13.664Z,35.40
2022-11-15T08:28:40.086Z,30.27
2022-11-15T08:31:06.534Z,27.58
2022-11-15T08:33:34.387Z,32.28
2022-11-15T08:36:01.894Z,29.40
2022-11-15T08:38:30.276Z,29.90
2022-11-15T08:41:03.630Z,30.83
2022-11-15T08:43:30.763Z,29.48
2022-11-15T08:48:24.276Z,30.27
2022-11-15T08:50:55.138Z,25.50
2022-11-15T08:53:21.642Z,28.73
2022-11-15T08:55:48.061Z,30.45
2022-11-15T08:58:14.475Z,29.48
2022-11-15T09:00:40.958Z,32.13
2022-11-15T09:03:10.132Z,27.33
2022-11-15T09:05:37.809Z,29.20
2022-11-15T09:08:19.176Z,27.90
2022-11-15T09:10:51.301Z,27.90
2022-11-15T09:13:17.975Z,27.10
2022-11-15T09:15:44.427Z,24.77
2022-11-15T09:18:10.795Z,25.45
2022-11-15T09:20:37.261Z,25.92
2022-11-15T09:23:05.105Z,27.73
2022-11-15T09:25:31.929Z,24.63
2022-11-15T09:27:58.586Z,21.00
2022-11-15T09:30:26.196Z,23.17
2022-11-15T09:35:18.923Z,23.88
2022-11-15T09:37:45.313Z,26.00
2022-11-15T09:40:17.451Z,25.05
2022-11-15T09:43:08.746Z,23.88
2022-11-15T09:45:52.426Z,22.70
2022-11-15T09:48:36.526Z,25.33
2022-11-15T09:51:05.737Z,24.25
2022-11-15T09:54:13.607Z,27.90
2022-11-15T09:56:24.335Z,22.88
2022-11-15T09:59:18.450Z,23.60
2022-11-15T10:02:06.164Z,21.30
2022-11-15T10:04:33.209Z,21.27
2022-11-15T10:07:07.456Z,19.27
2022-11-15T10:09:43.696Z,22.33
2022-11-15T10:12:12.573Z,19.20
2022-11-15T10:14:39.011Z,21.77
2022-11-15T10:17:20.596Z,21.15
2022-11-15T10:20:05.679Z,20.95
2022-11-15T10:22:40.837Z,22.70
2022-11-15T10:25:10.236Z,20.88
2022-11-15T10:27:37.057Z,20.52
2022-11-15T10:30:11.489Z,19.85
2022-11-15T10:32:38.592Z,23.83
2022-11-15T10:35:26.451Z,20.55
2022-11-15T10:38:02.006Z,19.58
2022-11-15T10:40:28.407Z,22.02
2022-11-15T10:43:14.818Z,20.05
2022-11-15T10:45:41.472Z,22.77
2022-11-15T10:48:13.719Z,19.88
2022-11-15T10:50:42.832Z,18.65
2022-11-15T10:53:24.923Z,18.20
2022-11-15T10:55:55.858Z,18.13
2022-11-15T10:58:22.212Z,17.38
2022-11-15T11:00:48.701Z,17.25
2022-11-15T11:03:36.576Z,18.80
2022-11-15T11:06:07.994Z,15.25
2022-11-15T11:08:35.072Z,18.15
2022-11-15T11:11:04.101Z,15.45
2022-11-15T11:13:34.773Z,16.42
2022-11-15T11:16:23.223Z,16.85
2022-11-15T11:19:17.723Z,16.33
2022-11-15T11:21:57.090Z,16.42
2022-11-15T11:24:37.724Z,16.10
2022-11-15T11:27:33.411Z,17.38
2022-11-15T11:30:21.005Z,17.17
2022-11-15T11:33:01.557Z,16.40
2022-11-15T11:35:33.557Z,16.10
2022-11-15T11:38:23.417Z,18.05
2022-11-15T11:41:26.650Z,16.67
2022-11-15T11:44:29.588Z,16.48
2022-11-15T11:46:59.263Z,15.85
2022-11-15T11:49:54.852Z,17.15
2022-11-15T11:52:30.935Z,14.55
2022-11-15T11:55:06.884Z,15.32
2022-11-15T11:57:40.695Z,16.83
2022-11-15T12:00:24.600Z,16.33
2022-11-15T12:03:00.037Z,16.90
2022-11-15T12:05:38.591Z,14.90
2022-11-15T12:08:23.300Z,14.60
2022-11-15T12:10:58.779Z,15.10
2022-11-15T12:13:30.182Z,18.67
2022-11-15T12:16:10.232Z,16.00
2022-11-15T12:18:37.809Z,19.77
2022-11-15T12:21:28.915Z,18.45
2022-11-15T12:24:05.017Z,18.63
2022-11-15T12:26:38.454Z,18.45
2022-11-15T12:29:16.132Z,16.35
2022-11-15T12:31:48.506Z,20.05
2022-11-15T12:34:20.697Z,18.02
2022-11-15T12:36:49.151Z,20.88
2022-11-15T12:39:16.698Z,16.13
2022-11-15T12:44:34.476Z,17.50
2022-11-15T12:47:05.298Z,19.70
2022-11-15T12:49:31.658Z,18.77
2022-11-15T12:51:58.001Z,17.92
2022-11-15T12:54:24.379Z,18.60
2022-11-15T12:57:08.797Z,18.60
2022-11-15T12:59:55.857Z,17.80
2022-11-15T13:02:27.559Z,17.48
2022-11-15T13:05:24.802Z,17.05
2022-11-15T13:07:51.124Z,16.75
2022-11-15T13:10:17.442Z,18.35
2022-11-15T13:12:46.556Z,17.10
2022-11-15T13:15:12.864Z,17.25
2022-11-15T13:17:46.376Z,16.85
2022-11-15T13:20:15.227Z,17.75
2022-11-15T13:22:52.060Z,16.77
2022-11-15T13:25:33.579Z,16.83
2022-11-15T13:28:07.607Z,14.93
2022-11-15T13:30:34.459Z,16.52
2022-11-15T13:33:11.735Z,17.40
2022-11-15T13:38:07.400Z,19.13
2022-11-15T13:40:38.312Z,19.42
2022-11-15T13:43:25.034Z,19.13
2022-11-15T13:46:10.618Z,18.52
2022-11-15T13:48:37.294Z,19.27
2022-11-15T13:51:42.709Z,23.40
2022-11-15T13:54:18.156Z,20.45
2022-11-15T13:56:56.725Z,22.90
2022-11-15T13:59:29.070Z,22.08
2022-11-15T14:01:58.852Z,18.77
2022-11-15T14:04:30.520Z,20.77
2022-11-15T14:07:00.614Z,20.50
2022-11-15T14:09:33.711Z,21.00
2022-11-15T14:12:01.938Z,24.10
2022-11-15T14:14:29.761Z,21.80
2022-11-15T14:17:00.816Z,22.48
2022-11-15T14:19:27.202Z,22.98
2022-11-15T14:22:11.378Z,23.23
2022-11-15T14:24:38.283Z,24.80
2022-11-15T14:27:37.035Z,25.80
2022-11-15T14:30:04.003Z,20.98
2022-11-15T14:32:40.101Z,23.20
2022-11-15T14:35:15.433Z,20.50
2022-11-15T14:37:41.849Z,27.23
2022-11-15T14:40:10.727Z,41.13
2022-11-15T14:42:37.238Z,44.92
2022-11-15T14:45:03.756Z,40.85
2022-11-15T14:47:30.254Z,51.03
2022-11-15T14:49:56.703Z,39.10
2022-11-15T14:52:34.368Z,35.42
2022-11-15T14:55:03.225Z,32.08
2022-11-15T14:57:30.493Z,50.25
2022-11-15T14:59:57.806Z,32.63
2022-11-15T15:02:27.731Z,32.97
2022-11-15T15:04:54.541Z,126.57
2022-11-15T15:07:21.446Z,52.70
2022-11-15T15:09:48.191Z,60.38
2022-11-15T15:12:21.123Z,63.47
2022-11-15T15:14:49.008Z,127.10
2022-11-15T15:17:16.285Z,59.58
2022-11-15T15:19:43.035Z,47.90
2022-11-15T15:22:16.487Z,42.20
2022-11-15T15:24:44.171Z,73.55
2022-11-15T15:27:11.014Z,52.63
2022-11-15T15:29:37.861Z,66.85
2022-11-15T15:32:04.861Z,60.63
2022-11-15T15:34:33.413Z,76.30
2022-11-15T15:37:25.973Z,64.30
2022-11-15T15:39:54.724Z,40.80
2022-11-15T15:42:22.392Z,41.28
2022-11-15T15:47:23.808Z,35.47
2022-11-15T15:49:53.371Z,33.30
2022-11-15T15:52:22.890Z,61.00
2022-11-15T15:54:58.358Z,50.38
2022-11-15T15:57:27.896Z,50.22
2022-11-15T15:59:57.897Z,54.75
2022-11-15T16:02:28.359Z,49.65
2022-11-15T16:04:57.904Z,37.30
2022-11-15T16:07:25.775Z,43.33
2022-11-15T16:10:03.402Z,39.47
2022-11-15T16:12:38.867Z,41.58
2022-11-15T16:15:08.410Z,45.03
2022-11-15T16:17:43.342Z,50.33
2022-11-15T16:20:35.192Z,34.55
2022-11-15T16:23:09.417Z,35.47
2022-11-15T16:25:50.416Z,33.28
2022-11-15T16:28:32.632Z,36.83
2022-11-15T16:31:19.054Z,36.85
2022-11-15T16:33:49.920Z,40.63
2022-11-15T16:36:30.717Z,36.85
2022-11-15T16:39:15.032Z,40.13
2022-11-15T16:41:49.918Z,41.75
2022-11-15T16:44:17.248Z,39.83
2022-11-15T16:49:25.114Z,41.30
2022-11-15T16:51:59.035Z,43.35
2022-11-15T16:54:34.500Z,50.25
2022-11-15T16:57:04.465Z,60.47
2022-11-15T16:59:43.443Z,75.00
2022-11-15T17:02:21.820Z,66.15
2022-11-15T17:05:09.599Z,54.95
2022-11-15T17:07:45.126Z,51.70
2022-11-15T17:10:12.496Z,46.40
2022-11-15T17:12:38.994Z,50.45
2022-11-15T17:15:06.136Z,47.35
2022-11-15T17:17:33.010Z,47.50
2022-11-15T17:19:59.552Z,46.67
2022-11-15T17:22:26.140Z,54.97
2022-11-15T17:24:52.716Z,53.13
2022-11-15T17:27:21.870Z,47.95
2022-11-15T17:29:48.441Z,46.80
2022-11-15T17:32:15.025Z,46.47
2022-11-15T17:34:41.665Z,49.30
2022-11-15T17:37:08.252Z,46.92
2022-11-15T17:39:34.791Z,43.97
2022-11-15T17:42:01.338Z,48.22
2022-11-15T17:44:27.919Z,46.42
2022-11-15T17:46:54.378Z,47.88
2022-11-15T17:49:21.060Z,49.05
2022-11-15T17:51:49.901Z,58.73
2022-11-15T17:54:16.865Z,46.38
2022-11-15T17:56:43.458Z,55.25
2022-11-15T17:59:14.834Z,56.73
2022-11-15T18:01:42.544Z,49.50
2022-11-15T18:04:10.200Z,46.95
2022-11-15T18:06:37.053Z,44.05
2022-11-15T18:09:04.865Z,42.67
2022-11-15T18:11:34.788Z,42.47
2022-11-15T18:14:06.611Z,39.85
2022-11-15T18:16:36.206Z,41.38
2022-11-15T18:19:09.034Z,41.75
2022-11-15T18:21:55.592Z,40.88
2022-11-15T18:24:32.355Z,40.47
2022-11-15T18:27:00.168Z,42.72
2022-11-15T18:29:27.090Z,44.00
2022-11-15T18:31:55.945Z,43.15
2022-11-15T18:34:24.574Z,39.38
2022-11-15T18:36:52.941Z,37.60
2022-11-15T18:39:19.995Z,39.63
2022-11-15T18:41:46.955Z,41.00
2022-11-15T18:44:15.651Z,38.20
2022-11-15T18:46:44.508Z,36.17
2022-11-15T18:49:13.291Z,36.40
2022-11-15T18:51:42.033Z,38.65
2022-11-15T18:54:13.647Z,39.97
2022-11-15T18:56:40.711Z,35.95
2022-11-15T18:59:08.738Z,37.38
2022-11-15T19:01:40.923Z,34.08
2022-11-15T19:04:17.610Z,38.63
2022-11-15T19:06:46.601Z,39.75
2022-11-15T19:09:17.321Z,42.33
2022-11-15T19:11:46.047Z,40.17
2022-11-15T19:14:16.099Z,39.17
2022-11-15T19:16:52.460Z,42.45
2022-11-15T19:19:22.005Z,41.80
2022-11-15T19:21:49.188Z,38.50
2022-11-15T19:24:15.901Z,39.72
2022-11-15T19:26:42.694Z,39.93
2022-11-15T19:29:10.475Z,43.78
2022-11-15T19:31:38.126Z,39.10
2022-11-15T19:36:35.103Z,37.30
2022-11-15T19:39:07.590Z,43.50
2022-11-15T19:41:35.395Z,41.20
2022-11-15T19:44:02.151Z,40.08
2022-11-15T19:46:28.754Z,41.15
2022-11-15T19:48:55.290Z,41.23
2022-11-15T19:51:24.617Z,51.05
2022-11-15T19:53:56.733Z,44.15
2022-11-15T19:56:23.807Z,49.58
2022-11-15T19:58:55.437Z,56.63
2022-11-15T20:01:30.959Z,54.60
2022-11-15T20:03:59.573Z,55.97
2022-11-15T20:06:31.567Z,54.05
2022-11-15T20:08:58.687Z,56.25
2022-11-15T20:11:26.043Z,61.85
2022-11-15T20:13:57.438Z,56.75
2022-11-15T20:16:24.446Z,60.25
2022-11-15T20:18:51.499Z,62.00
2022-11-15T20:21:19.227Z,55.15
2022-11-15T20:23:47.763Z,60.10
2022-11-15T20:26:15.326Z,66.85
2022-11-15T20:28:42.191Z,65.18
2022-11-15T20:31:10.188Z,59.30
2022-11-15T20:33:36.959Z,56.85
2022-11-15T20:36:11.411Z,63.28
2022-11-15T20:38:38.025Z,57.17
2022-11-15T20:41:04.879Z,54.27
2022-11-15T20:43:31.419Z,48.97
2022-11-15T20:45:58.094Z,54.15
2022-11-15T20:48:24.720Z,49.73
2022-11-15T20:50:51.255Z,51.05
2022-11-15T20:53:19.839Z,47.67
2022-11-15T20:55:49.099Z,48.55
2022-11-15T20:58:17.226Z,49.92
2022-11-15T21:00:44.940Z,47.08
2022-11-15T21:03:12.367Z,45.90
2022-11-15T21:05:41.033Z,47.55
2022-11-15T21:08:09.192Z,45.08
2022-11-15T21:10:54.865Z,41.85
2022-11-15T21:13:22.082Z,39.47
2022-11-15T21:15:48.706Z,44.15
2022-11-15T21:18:15.600Z,41.60
2022-11-15T21:20:42.679Z,38.10
2022-11-15T21:23:09.458Z,36.97
2022-11-15T21:25:36.099Z,41.15
2022-11-15T21:28:03.042Z,36.97
2022-11-15T21:30:30.340Z,39.50
2022-11-15T21:32:57.165Z,38.65
2022-11-15T21:35:24.002Z,34.05
2022-11-15T21:37:56.425Z,36.85
2022-11-15T21:40:23.597Z,33.30
2022-11-15T21:42:50.190Z,35.70
2022-11-15T21:45:16.813Z,31.38
2022-11-15T21:47:46.269Z,40.20
2022-11-15T21:50:13.899Z,29.42
2022-11-15T21:52:40.881Z,35.17
2022-11-15T21:55:08.658Z,38.22
2022-11-15T21:57:35.380Z,34.33
2022-11-15T22:00:20.347Z,32.72
2022-11-15T22:02:46.793Z,36.25
2022-11-15T22:05:13.498Z,36.53
2022-11-15T22:07:40.067Z,35.57
2022-11-15T22:10:07.001Z,36.42
2022-11-15T22:12:33.683Z,38.78
2022-11-15T22:15:00.257Z,36.10
2022-11-15T22:17:46.975Z,35.97
2022-11-15T22:20:42.515Z,40.38
2022-11-15T22:23:00.274Z,31.73
2022-11-15T22:25:26.854Z,36.93
2022-11-15T22:27:54.005Z,37.47
2022-11-15T22:30:21.061Z,37.60
2022-11-15T22:32:48.008Z,41.22
2022-11-15T22:35:15.184Z,41.65
2022-11-15T22:37:42.048Z,38.67
2022-11-15T22:40:09.501Z,34.75
2022-11-15T22:42:36.096Z,35.90
2022-11-15T22:45:02.634Z,32.08
2022-11-15T22:47:29.445Z,38.47
2022-11-15T22:49:56.087Z,39.58
2022-11-15T22:52:22.689Z,33.23
2022-11-15T22:54:49.222Z,34.00
2022-11-15T22:57:15.803Z,33.42
2022-11-15T22:59:42.626Z,35.85
2022-11-15T23:02:09.411Z,32.03
2022-11-15T23:04:36.035Z,33.55
2022-11-15T23:07:02.654Z,38.75
2022-11-15T23:09:29.200Z,31.87
2022-11-15T23:12:14.127Z,31.50
2022-11-15T23:14:40.688Z,34.28
2022-11-15T23:17:07.370Z,32.20
2022-11-15T23:19:34.069Z,35.55
2022-11-15T23:22:19.272Z,31.67
2022-11-15T23:24:46.013Z,33.05
2022-11-15T23:27:15.467Z,31.23
2022-11-15T23:30:00.733Z,33.53
2022-11-15T23:32:45.831Z,30.70
2022-11-15T23:35:12.636Z,32.90
2022-11-15T23:37:39.354Z,34.45
2022-11-15T23:40:06.814Z,29.07
2022-11-15T23:42:33.421Z,34.10
2022-11-15T23:44:59.936Z,36.65
2022-11-15T23:47:26.752Z,31.13
2022-11-15T23:49:53.316Z,31.17
2022-11-15T23:52:20.054Z,30.90
2022-11-15T23:54:46.671Z,28.00
2022-11-15T23:57:13.411Z,30.07
2022-11-15T23:59:43.599Z,30.53
